Time;durP1;ratioP1;P1;durP2;ratioP2;P2;SDS_P1;SDS_P2;PMS_P1;PMS_P2;Temp;Humidity;BMP_temperature;BMP_pressure;BME280_temperature;BME280_humidity;BME280_pressure;Samples;Min_cycle;Max_cycle;Signal;HPM_P1;HPM_P2
2021/11/24 00:01:44;;;;;;;22.25;16.05;;;;;;;4.12;85.87;101123.23;2035787;85;20985;-74
2021/11/24 00:04:46;;;;;;;23.22;16.70;;;;;;;4.13;85.83;101130.16;2037798;85;20968;-75
2021/11/24 00:07:48;;;;;;;26.45;18.07;;;;;;;4.16;85.91;101122.55;2038484;85;21612;-78
2021/11/24 00:10:49;;;;;;;25.43;17.45;;;;;;;4.15;85.80;101126.13;2048830;85;21089;-76
2021/11/24 00:13:51;;;;;;;23.57;17.17;;;;;;;4.09;85.69;101122.12;2045719;86;21040;-77
2021/11/24 00:16:52;;;;;;;28.15;17.05;;;;;;;4.07;85.70;101120.53;2039570;86;21377;-76
2021/11/24 00:19:54;;;;;;;22.37;16.32;;;;;;;4.04;85.71;101122.41;2049570;85;21018;-74
2021/11/24 00:22:56;;;;;;;22.75;16.25;;;;;;;4.08;85.82;101115.64;2048355;86;21039;-75
2021/11/24 00:25:57;;;;;;;25.00;16.30;;;;;;;4.11;85.78;101116.30;2048870;86;21015;-74
2021/11/24 00:28:59;;;;;;;25.43;16.80;;;;;;;4.14;85.71;101120.03;2049904;85;21119;-74
2021/11/24 00:32:01;;;;;;;27.17;18.23;;;;;;;4.16;85.73;101120.75;2045948;86;20977;-75
2021/11/24 00:35:05;;;;;;;28.00;18.12;;;;;;;4.20;85.72;101120.94;2046552;86;21052;-74
2021/11/24 00:38:07;;;;;;;26.00;17.20;;;;;;;4.23;85.60;101115.96;2046393;85;21057;-75
2021/11/24 00:41:09;;;;;;;27.07;17.73;;;;;;;4.19;85.48;101106.10;2047534;85;21577;-74
2021/11/24 00:44:10;;;;;;;24.65;16.12;;;;;;;4.18;85.47;101114.10;2044803;86;21018;-74
2021/11/24 00:47:12;;;;;;;22.27;15.20;;;;;;;4.16;85.50;101112.04;2045973;86;21058;-74
2021/11/24 00:50:14;;;;;;;22.45;15.50;;;;;;;4.17;85.49;101116.38;2049349;85;21021;-74
2021/11/24 00:53:16;;;;;;;23.02;15.88;;;;;;;4.17;85.49;101109.33;2046504;86;21008;-74
2021/11/24 00:56:18;;;;;;;28.15;17.98;;;;;;;4.18;85.47;101116.73;2044427;85;21060;-76
2021/11/24 00:59:20;;;;;;;24.15;16.50;;;;;;;4.20;85.55;101106.50;2046539;86;21007;-75
2021/11/24 01:02:22;;;;;;;27.70;17.60;;;;;;;4.17;85.43;101113.74;2042552;86;21569;-74
2021/11/24 01:05:23;;;;;;;24.32;17.02;;;;;;;4.14;85.38;101100.78;2046292;85;21028;-75
2021/11/24 01:08:25;;;;;;;26.05;15.88;;;;;;;4.07;85.37;101103.45;2046145;85;21875;-74
2021/11/24 01:11:27;;;;;;;24.35;15.55;;;;;;;4.06;85.41;101109.67;2040615;84;21377;-77
2021/11/24 01:14:28;;;;;;;21.73;15.05;;;;;;;4.02;85.38;101100.64;2040475;85;21044;-74
2021/11/24 01:17:30;;;;;;;24.10;14.87;;;;;;;4.03;85.41;101105.45;2039850;84;21072;-73
2021/11/24 01:20:33;;;;;;;24.52;14.98;;;;;;;4.04;85.48;101105.81;2041889;85;21475;-76
2021/11/24 01:23:35;;;;;;;21.27;15.30;;;;;;;4.06;85.50;101103.94;2035033;85;21064;-74
2021/11/24 01:26:37;;;;;;;22.80;14.90;;;;;;;4.10;85.52;101099.31;2038518;85;21076;-74
2021/11/24 01:29:39;;;;;;;25.23;15.88;;;;;;;4.08;85.40;101097.25;2042316;85;21021;-74
2021/11/24 01:32:41;;;;;;;28.30;16.17;;;;;;;4.03;85.36;101101.03;2036930;85;21034;-73
2021/11/24 01:35:42;;;;;;;24.40;14.85;;;;;;;4.09;85.52;101096.33;2040394;85;21049;-75
2021/11/24 01:38:44;;;;;;;24.60;15.10;;;;;;;4.07;85.40;101092.48;2033409;85;21050;-73
2021/11/24 01:41:46;;;;;;;24.60;15.45;;;;;;;4.01;85.37;101093.72;2040804;85;21090;-74
2021/11/24 01:44:47;;;;;;;23.47;15.43;;;;;;;4.00;85.44;101089.42;2035013;85;21049;-74
2021/11/24 01:47:51;;;;;;;24.90;15.70;;;;;;;4.01;85.53;101091.09;2034798;85;21054;-74
2021/11/24 01:50:54;;;;;;;19.85;14.20;;;;;;;4.01;85.49;101088.47;2048346;85;20951;-74
2021/11/24 01:53:55;;;;;;;19.60;14.07;;;;;;;4.01;85.53;101087.16;2037887;84;21507;-74
2021/11/24 01:56:58;;;;;;;20.77;14.13;;;;;;;4.01;85.52;101077.13;2038351;85;21052;-75
2021/11/24 02:00:00;;;;;;;21.12;14.28;;;;;;;4.04;85.59;101079.55;2031472;84;20998;-74
2021/11/24 02:03:04;;;;;;;22.17;14.03;;;;;;;4.09;85.64;101076.63;2042622;85;21037;-75
2021/11/24 02:06:05;;;;;;;26.40;15.75;;;;;;;4.11;85.56;101076.03;2041878;85;21003;-76
2021/11/24 02:09:08;;;;;;;26.20;14.53;;;;;;;4.10;85.53;101071.26;2037209;85;21053;-74
2021/11/24 02:12:11;;;;;;;21.93;13.13;;;;;;;4.12;85.54;101067.23;2041041;85;21075;-74
2021/11/24 02:15:13;;;;;;;19.00;12.33;;;;;;;4.11;85.46;101065.53;2038506;85;21062;-73
2021/11/24 02:18:15;;;;;;;19.50;13.78;;;;;;;4.09;85.43;101066.12;2039178;85;21600;-74
2021/11/24 02:21:18;;;;;;;21.57;14.25;;;;;;;4.06;85.40;101070.27;2038819;85;21096;-73
2021/11/24 02:24:23;;;;;;;19.90;13.25;;;;;;;4.05;85.52;101072.03;2037531;85;21050;-74
2021/11/24 02:27:25;;;;;;;20.10;11.93;;;;;;;4.05;85.50;101069.40;2039597;85;21004;-74
2021/11/24 02:30:27;;;;;;;18.55;13.35;;;;;;;4.08;85.49;101072.30;2034511;85;21658;-74
2021/11/24 02:33:28;;;;;;;20.85;12.23;;;;;;;4.11;85.54;101066.84;2034998;85;21076;-74
2021/11/24 02:36:32;;;;;;;17.20;12.05;;;;;;;4.12;85.50;101060.66;2041685;85;21471;-73
2021/11/24 02:39:34;;;;;;;18.62;12.28;;;;;;;4.14;85.48;101062.69;2034087;85;21521;-74
2021/11/24 02:42:39;;;;;;;21.90;13.68;;;;;;;4.16;85.54;101047.69;2036306;85;21009;-73
2021/11/24 02:45:41;;;;;;;22.02;13.40;;;;;;;4.15;85.43;101044.22;2036348;85;21038;-73
2021/11/24 02:48:43;;;;;;;24.77;13.95;;;;;;;4.12;85.36;101046.22;2042462;85;20986;-73
2021/11/24 02:51:45;;;;;;;19.73;12.65;;;;;;;4.05;85.32;101045.77;2035157;85;21072;-74
2021/11/24 02:54:57;;;;;;;20.37;13.22;;;;;;;3.99;85.32;101047.02;2035857;85;21061;-74
2021/11/24 02:57:58;;;;;;;17.35;11.90;;;;;;;3.94;85.29;101036.00;2036700;85;22322;-75
2021/11/24 03:01:03;;;;;;;19.12;12.00;;;;;;;3.90;85.30;101037.13;2033376;85;21017;-74
2021/11/24 03:04:05;;;;;;;18.90;11.53;;;;;;;3.89;85.38;101035.93;2040866;85;21061;-73
2021/11/24 03:07:06;;;;;;;22.25;12.58;;;;;;;3.86;85.40;101035.66;2011075;86;21017;-74
2021/11/24 03:10:09;;;;;;;19.35;12.63;;;;;;;3.85;85.45;101031.33;1976390;88;21022;-75
2021/11/24 03:13:10;;;;;;;20.55;11.97;;;;;;;3.86;85.55;101026.92;2013653;86;21098;-74
2021/11/24 03:16:12;;;;;;;16.67;11.85;;;;;;;3.86;85.57;101025.16;2010208;86;21528;-73
2021/11/24 03:19:14;;;;;;;18.42;12.80;;;;;;;3.86;85.68;101027.78;2012855;87;21088;-74
2021/11/24 03:22:23;;;;;;;17.82;11.88;;;;;;;3.82;85.59;101026.28;2015717;87;21025;-74
2021/11/24 03:25:26;;;;;;;20.02;11.30;;;;;;;3.77;85.53;101024.43;2002289;87;20995;-75
2021/11/24 03:28:27;;;;;;;19.62;11.20;;;;;;;3.76;85.63;101021.45;1977047;88;21058;-74
2021/11/24 03:31:29;;;;;;;18.27;11.80;;;;;;;3.74;85.62;101020.22;1977079;88;21871;-74
2021/11/24 03:34:31;;;;;;;17.62;10.15;;;;;;;3.73;85.62;101027.73;1975600;88;21053;-73
2021/11/24 03:37:33;;;;;;;17.02;10.82;;;;;;;3.72;85.55;101036.56;2006143;87;21093;-74
2021/11/24 03:40:35;;;;;;;19.48;12.20;;;;;;;3.72;85.53;101027.37;2009999;87;21020;-74
2021/11/24 03:43:37;;;;;;;17.50;11.28;;;;;;;3.72;85.55;101027.37;1976537;88;21574;-74
2021/11/24 03:46:38;;;;;;;19.15;12.30;;;;;;;3.73;85.57;101025.59;1979813;88;21133;-74
2021/11/24 03:49:40;;;;;;;17.70;11.88;;;;;;;3.76;85.67;101024.07;2002662;87;21367;-76
2021/11/24 03:52:43;;;;;;;15.83;10.78;;;;;;;3.77;85.53;101020.48;1979920;88;21072;-74
2021/11/24 03:55:45;;;;;;;16.42;10.05;;;;;;;3.73;85.48;101022.96;1990154;88;21078;-74
2021/11/24 03:58:46;;;;;;;19.10;10.43;;;;;;;3.69;85.45;101018.84;1971615;88;21844;-74
2021/11/24 04:01:48;;;;;;;15.53;9.68;;;;;;;3.69;85.50;101017.52;1999205;87;21354;-74
2021/11/24 04:04:50;;;;;;;13.40;9.45;;;;;;;3.73;85.66;101001.96;2008562;87;21143;-75
2021/11/24 04:07:52;;;;;;;15.98;11.18;;;;;;;3.80;85.74;101000.59;2006801;87;21074;-73
2021/11/24 04:10:53;;;;;;;19.32;11.38;;;;;;;3.88;85.68;101010.59;2001176;87;21015;-73
2021/11/24 04:13:55;;;;;;;17.60;11.00;;;;;;;3.91;85.61;101003.34;2004667;87;21595;-74
2021/11/24 04:16:57;;;;;;;19.75;11.60;;;;;;;3.93;85.58;101004.09;2003504;87;21042;-74
2021/11/24 04:19:58;;;;;;;17.62;11.78;;;;;;;3.91;85.45;101015.16;2000492;87;21560;-74
2021/11/24 04:23:00;;;;;;;17.17;10.63;;;;;;;3.91;85.49;101020.89;2003219;87;21653;-74
2021/11/24 04:26:02;;;;;;;15.50;10.72;;;;;;;3.92;85.46;101022.12;2040673;85;21137;-75
2021/11/24 04:29:03;;;;;;;19.15;11.30;;;;;;;3.93;85.44;101018.54;2039904;85;21035;-74
2021/11/24 04:32:06;;;;;;;17.60;11.00;;;;;;;3.96;85.46;101016.19;2036865;85;21479;-74
2021/11/24 04:35:09;;;;;;;16.97;10.98;;;;;;;3.97;85.42;101017.41;2039275;85;21092;-74
2021/11/24 04:38:10;;;;;;;19.55;12.45;;;;;;;4.00;85.47;101018.52;2039048;85;20997;-74
2021/11/24 04:41:12;;;;;;;20.48;13.83;;;;;;;4.02;85.43;101015.30;2039856;85;21516;-74
2021/11/24 04:44:14;;;;;;;25.57;13.48;;;;;;;4.06;85.46;101004.13;2038346;85;21028;-74
2021/11/24 04:47:15;;;;;;;21.60;12.05;;;;;;;4.08;85.40;101001.38;2038865;85;21050;-74
2021/11/24 04:50:17;;;;;;;20.15;12.45;;;;;;;4.08;85.33;101005.33;2039142;85;20978;-74
2021/11/24 04:53:19;;;;;;;19.70;11.65;;;;;;;4.04;85.21;101004.22;2040478;85;21067;-74
2021/11/24 04:56:21;;;;;;;20.12;12.07;;;;;;;4.03;85.18;100999.92;2038009;85;21002;-74
2021/11/24 04:59:23;;;;;;;20.37;11.97;;;;;;;4.06;85.23;100999.36;2036865;85;21489;-74
2021/11/24 05:02:25;;;;;;;20.02;12.82;;;;;;;4.07;85.26;100994.46;2036164;85;21062;-74
2021/11/24 05:05:30;;;;;;;21.52;13.50;;;;;;;4.08;85.21;100983.84;2038694;85;21021;-76
2021/11/24 05:08:34;;;;;;;23.50;13.85;;;;;;;4.10;85.21;100978.49;2039777;85;21576;-78
2021/11/24 05:11:36;;;;;;;25.50;12.28;;;;;;;4.11;85.16;100980.16;2042509;85;21057;-75
2021/11/24 05:14:38;;;;;;;21.17;13.30;;;;;;;4.12;85.14;100975.30;2039813;85;21114;-76
2021/11/24 05:17:42;;;;;;;21.93;12.33;;;;;;;4.08;84.88;100979.90;2040584;85;21050;-75
2021/11/24 05:20:44;;;;;;;22.10;13.20;;;;;;;4.00;84.82;100977.81;2043789;85;21056;-77
2021/11/24 05:23:46;;;;;;;21.25;13.22;;;;;;;3.99;84.82;100983.15;2037813;84;20979;-76
2021/11/24 05:26:48;;;;;;;24.72;14.30;;;;;;;3.97;84.81;100987.21;2039946;85;21060;-76
2021/11/24 05:29:50;;;;;;;28.67;15.18;;;;;;;3.95;84.84;100979.90;2037880;85;21080;-76
2021/11/24 05:32:51;;;;;;;24.82;15.32;;;;;;;3.96;84.86;100981.57;2035738;85;21057;-76
2021/11/24 05:35:54;;;;;;;25.80;15.18;;;;;;;3.93;84.82;100983.09;2031652;85;21088;-75
2021/11/24 05:38:56;;;;;;;25.85;14.85;;;;;;;3.89;84.70;100988.20;2035733;85;21029;-75
2021/11/24 05:41:57;;;;;;;22.25;14.40;;;;;;;3.86;84.67;100990.16;2041407;85;21484;-77
2021/11/24 05:45:15;;;;;;;25.17;14.90;;;;;;;3.82;84.70;100982.48;2036601;85;21049;-74
2021/11/24 05:48:14;;;;;;;24.77;15.70;;;;;;;3.86;84.77;100986.22;2041676;85;21083;-74
2021/11/24 05:51:16;;;;;;;24.85;15.98;;;;;;;3.83;84.71;100983.36;2044564;85;21020;-75
2021/11/24 05:54:18;;;;;;;26.93;16.40;;;;;;;3.82;84.69;100977.72;2038302;85;21048;-75
2021/11/24 05:57:20;;;;;;;24.55;15.23;;;;;;;3.78;84.67;100976.25;2039925;85;21053;-75
2021/11/24 06:00:22;;;;;;;21.68;14.30;;;;;;;3.76;84.71;100978.12;2038957;85;21041;-75
2021/11/24 06:03:24;;;;;;;21.48;14.03;;;;;;;3.74;84.74;100983.47;2045607;85;21033;-75
2021/11/24 06:06:25;;;;;;;22.75;14.20;;;;;;;3.76;84.76;100980.75;2036477;85;21068;-76
2021/11/24 06:09:27;;;;;;;23.60;13.98;;;;;;;3.77;84.74;100986.36;2039697;85;20981;-75
2021/11/24 06:12:29;;;;;;;22.10;13.62;;;;;;;3.79;84.77;100991.05;2043022;84;21070;-75
2021/11/24 06:15:30;;;;;;;23.00;14.85;;;;;;;3.83;84.79;100983.36;2030821;85;21069;-75
2021/11/24 06:18:32;;;;;;;29.40;17.62;;;;;;;3.86;84.67;100998.03;2034898;85;21090;-75
2021/11/24 06:21:34;;;;;;;23.10;15.38;;;;;;;3.86;84.65;100997.59;2032753;85;21066;-76
2021/11/24 06:24:36;;;;;;;24.47;14.75;;;;;;;3.85;84.62;100994.58;2031073;85;21619;-76
2021/11/24 06:27:38;;;;;;;21.45;13.85;;;;;;;3.83;84.55;100995.17;2041527;85;21094;-76
2021/11/24 06:30:40;;;;;;;22.40;13.93;;;;;;;3.78;84.43;100991.53;2007249;87;21035;-76
2021/11/24 06:33:43;;;;;;;21.68;13.60;;;;;;;3.79;84.43;100993.67;2015191;87;22539;-76
2021/11/24 06:36:44;;;;;;;22.52;13.72;;;;;;;3.81;84.42;100986.55;1986163;87;21610;-75
2021/11/24 06:39:46;;;;;;;21.35;13.70;;;;;;;3.78;84.28;100984.97;2009644;87;21041;-76
2021/11/24 06:42:48;;;;;;;20.55;14.45;;;;;;;3.78;84.27;100989.37;1971245;87;21036;-75
2021/11/24 06:45:49;;;;;;;21.33;14.07;;;;;;;3.77;84.22;101000.36;1969394;88;21654;-75
2021/11/24 06:48:51;;;;;;;24.63;16.12;;;;;;;3.80;84.26;100999.28;1985133;87;21045;-75
2021/11/24 06:51:53;;;;;;;22.95;15.78;;;;;;;3.81;84.27;100997.05;1971175;88;21089;-76
2021/11/24 06:54:54;;;;;;;28.52;14.95;;;;;;;3.78;84.23;101007.75;1973883;88;20975;-76
2021/11/24 06:57:56;;;;;;;26.27;15.35;;;;;;;3.74;84.20;101008.88;2046088;85;21594;-75
2021/11/24 07:01:00;;;;;;;22.67;14.63;;;;;;;3.72;84.37;101002.44;2047839;85;21053;-75
2021/11/24 07:04:01;;;;;;;23.10;14.65;;;;;;;3.74;84.41;101007.57;2009644;85;21071;-75
2021/11/24 07:07:03;;;;;;;27.80;14.33;;;;;;;3.74;84.45;101005.78;2046226;85;21041;-75
2021/11/24 07:10:06;;;;;;;20.77;12.35;;;;;;;3.76;84.52;101005.22;2039079;85;21046;-76
2021/11/24 07:13:08;;;;;;;22.82;14.33;;;;;;;3.79;84.50;101006.33;2031565;85;21114;-75
2021/11/24 07:16:10;;;;;;;22.50;14.30;;;;;;;3.81;84.51;101008.86;1971570;88;21084;-75
2021/11/24 07:19:11;;;;;;;24.60;14.90;;;;;;;3.85;84.57;101014.27;2014556;87;21065;-76
2021/11/24 07:22:13;;;;;;;25.85;15.00;;;;;;;3.89;84.55;101010.52;1983850;87;21507;-75
2021/11/24 07:25:15;;;;;;;27.45;14.75;;;;;;;3.89;84.50;101014.45;2008713;86;21072;-75
2021/11/24 07:28:16;;;;;;;20.90;13.48;;;;;;;3.92;84.53;101014.24;2001732;87;21009;-76
2021/11/24 07:31:18;;;;;;;23.83;13.08;;;;;;;3.93;84.52;101017.70;1977898;88;21160;-76
2021/11/24 07:34:20;;;;;;;23.60;12.80;;;;;;;3.97;84.58;101018.72;2001893;87;21115;-76
2021/11/24 07:37:21;;;;;;;22.22;12.63;;;;;;;3.99;84.56;101011.56;2002163;87;21093;-76
2021/11/24 07:40:24;;;;;;;22.82;12.65;;;;;;;4.03;84.63;101011.74;2001205;87;21000;-76
2021/11/24 07:43:25;;;;;;;22.50;13.10;;;;;;;4.08;84.68;101012.73;2011403;87;21002;-76
2021/11/24 07:46:27;;;;;;;22.48;13.70;;;;;;;4.15;84.72;101012.70;2013165;87;21105;-76
2021/11/24 07:49:29;;;;;;;19.82;12.05;;;;;;;4.19;84.62;101012.84;2012416;87;21049;-76
2021/11/24 07:52:30;;;;;;;18.62;11.90;;;;;;;4.19;84.52;101004.97;2009265;87;21054;-77
2021/11/24 07:55:32;;;;;;;19.85;12.18;;;;;;;4.22;84.55;101002.60;2010537;85;21046;-76
2021/11/24 07:58:33;;;;;;;19.45;12.20;;;;;;;4.25;84.54;101002.39;2009969;87;21023;-76
2021/11/24 08:01:35;;;;;;;20.57;12.53;;;;;;;4.31;84.50;101009.88;2013870;86;20996;-76
2021/11/24 08:04:37;;;;;;;19.73;11.70;;;;;;;4.36;84.46;101005.61;2011275;86;21079;-76
2021/11/24 08:07:39;;;;;;;32.33;14.00;;;;;;;4.39;84.50;101006.27;2000134;87;21019;-76
2021/11/24 08:10:41;;;;;;;29.72;16.12;;;;;;;4.46;84.50;101000.94;1974358;88;21525;-76
2021/11/24 08:13:43;;;;;;;24.63;13.25;;;;;;;4.54;84.56;100999.09;1994998;88;21074;-76
2021/11/24 08:16:44;;;;;;;20.52;13.13;;;;;;;4.60;84.35;101001.78;1995211;87;21058;-79
2021/11/24 08:19:46;;;;;;;24.85;15.23;;;;;;;4.64;84.35;100999.28;2003022;88;21445;-78
2021/11/24 08:22:48;;;;;;;34.50;16.32;;;;;;;4.70;84.37;100990.97;1998147;88;21025;-77
2021/11/24 08:25:49;;;;;;;25.10;13.60;;;;;;;4.82;84.32;100989.28;1996492;88;21608;-77
2021/11/24 08:28:51;;;;;;;17.92;12.35;;;;;;;4.87;84.12;100995.91;1996260;87;21048;-77
2021/11/24 08:31:53;;;;;;;36.03;21.02;;;;;;;4.96;84.15;100997.52;1997935;88;21030;-77
2021/11/24 08:34:55;;;;;;;18.60;11.15;;;;;;;5.02;84.04;100993.96;2004782;87;22107;-77
2021/11/24 08:37:56;;;;;;;20.17;11.40;;;;;;;5.04;83.83;100997.78;2001593;87;21009;-77
2021/11/24 08:40:58;;;;;;;20.10;11.35;;;;;;;5.06;83.72;101001.16;2000784;87;21042;-77
2021/11/24 08:44:00;;;;;;;20.70;12.55;;;;;;;5.07;83.74;100998.42;2016967;86;21469;-77
2021/11/24 08:47:02;;;;;;;18.90;11.55;;;;;;;5.10;83.77;100995.57;2009756;87;21077;-77
2021/11/24 08:50:11;;;;;;;16.65;10.93;;;;;;;5.16;83.68;100996.44;1966273;88;21644;-75
2021/11/24 08:53:12;;;;;;;18.62;11.00;;;;;;;5.22;83.58;100998.27;1969835;88;21001;-77
2021/11/24 08:56:14;;;;;;;19.05;9.93;;;;;;;5.28;83.60;100992.08;2010419;87;22246;-76
2021/11/24 08:59:16;;;;;;;18.07;11.95;;;;;;;5.37;83.57;100988.77;2002057;87;21073;-76
2021/11/24 09:02:17;;;;;;;19.95;12.40;;;;;;;5.44;83.30;100992.30;2007592;87;21053;-76
2021/11/24 09:05:20;;;;;;;23.27;13.83;;;;;;;5.53;83.43;100988.98;2009319;87;21013;-76
2021/11/24 09:08:21;;;;;;;21.87;13.10;;;;;;;5.59;83.28;100989.84;2004309;87;21102;-77
2021/11/24 09:11:23;;;;;;;18.20;11.40;;;;;;;5.65;83.37;100991.17;2006360;87;21567;-76
2021/11/24 09:14:25;;;;;;;16.87;11.05;;;;;;;5.66;83.29;100983.63;2004034;87;21133;-77
2021/11/24 09:17:27;;;;;;;18.12;10.98;;;;;;;5.67;83.08;100986.16;2004534;87;21036;-77
2021/11/24 09:20:29;;;;;;;17.23;10.88;;;;;;;5.71;83.08;100986.77;2001916;87;21038;-77
2021/11/24 09:23:30;;;;;;;21.25;11.38;;;;;;;5.72;82.85;100980.09;2008659;87;21577;-76
2021/11/24 09:26:42;;;;;;;22.20;13.28;;;;;;;5.77;83.03;100983.22;2008209;87;21023;-77
2021/11/24 09:29:48;;;;;;;19.82;12.93;;;;;;;5.82;82.68;100993.39;2008691;87;21126;-76
2021/11/24 09:32:50;;;;;;;25.88;14.13;;;;;;;5.85;82.76;100989.20;2005953;87;21090;-77
2021/11/24 09:35:51;;;;;;;24.90;13.85;;;;;;;5.91;82.74;100984.79;2009432;87;21487;-77
2021/11/24 09:38:54;;;;;;;31.23;15.95;;;;;;;5.95;82.77;100992.87;2012016;87;21085;-76
2021/11/24 09:42:03;;;;;;;31.87;15.88;;;;;;;6.03;82.85;100989.19;2006635;87;21569;-77
2021/11/24 09:45:05;;;;;;;14.43;9.10;;;;;;;6.05;82.62;100982.47;2009306;87;21076;-76
2021/11/24 09:48:07;;;;;;;28.80;14.47;;;;;;;6.05;82.18;100983.33;2008400;87;21078;-76
2021/11/24 09:51:09;;;;;;;37.75;17.15;;;;;;;6.03;82.21;100973.86;2007939;87;21056;-77
2021/11/24 09:54:14;;;;;;;19.57;11.60;;;;;;;6.03;82.24;100976.02;2007551;87;21148;-76
2021/11/24 09:57:18;;;;;;;20.12;11.88;;;;;;;6.06;82.29;100974.45;2012452;87;21064;-76
2021/11/24 10:00:22;;;;;;;15.05;9.60;;;;;;;6.11;82.28;100974.57;2008490;87;21046;-76
2021/11/24 10:03:26;;;;;;;16.35;10.88;;;;;;;6.08;82.22;100967.73;2008860;87;21017;-76
2021/11/24 10:06:28;;;;;;;18.65;10.60;;;;;;;6.08;82.24;100966.91;2008872;87;21018;-76
2021/11/24 10:09:30;;;;;;;17.45;10.20;;;;;;;6.09;82.38;100965.97;2010550;87;21017;-76
2021/11/24 10:12:32;;;;;;;20.52;10.40;;;;;;;6.09;82.30;100960.22;2008824;87;21110;-76
2021/11/24 10:15:44;;;;;;;24.18;13.13;;;;;;;6.07;82.41;100955.53;2007244;87;21096;-76
2021/11/24 10:19:03;;;;;;;25.62;12.75;;;;;;;6.03;82.47;100956.73;2040027;85;21064;-75
2021/11/24 10:22:10;;;;;;;21.90;11.48;;;;;;;6.00;82.41;100953.02;2040276;85;21535;-76
2021/11/24 10:25:21;;;;;;;22.40;10.68;;;;;;;6.00;82.44;100947.75;2041306;85;21068;-76
2021/11/24 10:28:30;;;;;;;18.48;11.10;;;;;;;6.01;82.50;100942.83;1981660;88;21058;-76
2021/11/24 10:31:42;;;;;;;23.12;10.65;;;;;;;6.05;82.58;100946.44;2049885;85;21077;-76
2021/11/24 10:34:44;;;;;;;19.98;10.98;;;;;;;6.10;82.54;100943.44;2037731;85;21021;-76
2021/11/24 10:37:46;;;;;;;16.62;10.15;;;;;;;6.19;82.65;100936.62;2017524;85;21079;-76
2021/11/24 10:40:48;;;;;;;22.87;12.30;;;;;;;6.26;82.47;100935.20;2043919;85;21037;-76
2021/11/24 10:43:50;;;;;;;16.40;10.05;;;;;;;6.28;82.11;100931.48;2038131;85;21038;-76
2021/11/24 10:46:55;;;;;;;16.17;9.78;;;;;;;6.30;82.10;100923.45;2042117;85;21054;-76
2021/11/24 10:50:02;;;;;;;15.03;9.30;;;;;;;6.32;81.88;100918.07;2040898;85;21068;-76
2021/11/24 10:53:07;;;;;;;13.53;9.38;;;;;;;6.30;81.74;100916.86;1982575;88;21615;-76
2021/11/24 10:56:08;;;;;;;15.03;8.58;;;;;;;6.34;81.88;100914.36;1981832;88;21065;-76
2021/11/24 10:59:18;;;;;;;10.30;7.58;;;;;;;6.48;82.16;100910.64;1980430;87;21600;-73
2021/11/24 11:02:45;;;;;;;11.90;8.73;;;;;;;6.54;81.54;100908.83;2047574;85;21071;-72
2021/11/24 11:05:49;;;;;;;13.70;9.23;;;;;;;6.60;81.62;100910.98;2041929;85;21028;-76
2021/11/24 11:08:59;;;;;;;17.32;9.95;;;;;;;6.61;81.16;100903.41;2014473;84;21698;-75
2021/11/24 11:12:07;;;;;;;19.15;11.45;;;;;;;6.58;81.17;100902.34;1977403;87;21127;-76
2021/11/24 11:15:26;;;;;;;17.30;10.43;;;;;;;6.56;80.96;100903.42;2002258;88;21666;-74
2021/11/24 11:18:32;;;;;;;13.70;9.00;;;;;;;6.49;80.63;100904.40;1999766;87;21053;-76
2021/11/24 11:21:37;;;;;;;20.37;10.20;;;;;;;6.44;80.70;100898.64;2008339;87;21118;-76
2021/11/24 11:24:38;;;;;;;18.05;11.05;;;;;;;6.42;80.73;100897.92;2008983;86;21063;-77
2021/11/24 11:27:43;;;;;;;14.40;8.85;;;;;;;6.45;80.93;100885.84;2007424;87;21029;-74
2021/11/24 11:30:47;;;;;;;13.18;8.53;;;;;;;6.48;80.88;100888.23;2005423;87;21077;-81
2021/11/24 11:33:55;;;;;;;17.00;9.33;;;;;;;6.48;80.77;100889.06;2006288;87;21690;-78
2021/11/24 11:36:58;;;;;;;13.78;8.10;;;;;;;6.44;80.47;100892.05;2009591;87;21072;-75
2021/11/24 11:40:00;;;;;;;14.10;8.38;;;;;;;6.35;80.38;100889.67;1974727;88;21560;-76
2021/11/24 11:43:03;;;;;;;15.03;8.15;;;;;;;6.35;80.53;100880.92;1974298;87;20994;-75
2021/11/24 11:46:23;;;;;;;16.52;9.43;;;;;;;6.33;80.45;100880.20;2013417;87;21694;-75
2021/11/24 11:49:28;;;;;;;16.40;9.87;;;;;;;6.33;80.59;100879.72;1983002;88;21578;-74
2021/11/24 11:52:30;;;;;;;13.60;9.05;;;;;;;6.38;80.78;100878.05;2006974;86;21120;-73
2021/11/24 11:55:32;;;;;;;13.50;9.90;;;;;;;6.36;80.38;100873.36;2008627;87;21018;-74
2021/11/24 11:58:35;;;;;;;15.60;8.93;;;;;;;6.26;80.27;100872.78;2007077;87;21053;-75
2021/11/24 12:01:42;;;;;;;14.33;9.63;;;;;;;6.20;80.53;100863.20;2006302;87;21041;-74
2021/11/24 12:04:47;;;;;;;15.95;8.55;;;;;;;6.20;80.72;100862.72;2002827;87;21118;-75
2021/11/24 12:08:10;;;;;;;17.00;11.30;;;;;;;6.22;80.62;100859.50;2005982;87;21608;-74
2021/11/24 12:11:12;;;;;;;16.20;10.43;;;;;;;6.21;80.57;100857.80;2007371;87;21052;-74
2021/11/24 12:14:52;;;;;;;14.83;9.38;;;;;;;6.19;80.52;100857.08;2003390;87;21584;-73
2021/11/24 12:17:58;;;;;;;16.35;10.48;;;;;;;6.16;80.42;100857.80;1981527;87;21375;-75
2021/11/24 12:21:03;;;;;;;14.28;10.43;;;;;;;6.11;80.57;100855.55;2006744;87;21538;-74
2021/11/24 12:24:08;;;;;;;19.95;12.43;;;;;;;6.07;80.52;100848.83;2006269;87;21563;-75
2021/11/24 12:27:10;;;;;;;20.97;12.58;;;;;;;6.06;80.67;100856.38;2004150;87;21088;-74
2021/11/24 12:30:12;;;;;;;17.55;11.48;;;;;;;6.05;80.56;100844.14;2007679;87;21021;-75
2021/11/24 12:33:27;;;;;;;16.45;10.65;;;;;;;6.04;80.44;100845.95;2005417;87;21015;-75
2021/11/24 12:36:32;;;;;;;18.92;10.60;;;;;;;6.02;80.43;100847.02;2009549;87;21476;-75
2021/11/24 12:39:34;;;;;;;19.73;10.72;;;;;;;6.02;80.44;100844.39;2008690;87;20997;-75
2021/11/24 12:42:35;;;;;;;20.08;11.73;;;;;;;6.04;80.66;100840.67;2006633;87;21639;-75
2021/11/24 12:45:37;;;;;;;22.05;11.57;;;;;;;6.08;80.67;100842.58;2006325;87;21066;-75
2021/11/24 12:48:58;;;;;;;17.95;11.85;;;;;;;6.05;80.59;100847.64;2004098;87;21086;-75
2021/11/24 12:52:01;;;;;;;23.85;13.35;;;;;;;6.06;80.71;100836.63;2006465;87;21062;-75
2021/11/24 12:55:05;;;;;;;25.12;14.90;;;;;;;6.07;80.64;100843.55;2004282;87;21567;-75
2021/11/24 12:58:26;;;;;;;32.23;16.65;;;;;;;6.06;80.55;100837.94;2006810;87;21268;-75
2021/11/24 13:01:36;;;;;;;22.20;11.63;;;;;;;6.12;80.68;100836.13;2005499;87;21106;-75
2021/11/24 13:04:49;;;;;;;18.92;12.20;;;;;;;6.12;80.50;100839.25;2003588;87;21081;-75
2021/11/24 13:07:54;;;;;;;26.42;12.95;;;;;;;6.18;80.79;100830.86;2010151;87;21058;-75
2021/11/24 13:11:07;;;;;;;25.15;14.18;;;;;;;6.24;80.73;100825.09;2002260;87;21543;-75
2021/11/24 13:14:10;;;;;;;27.27;14.95;;;;;;;6.27;80.61;100828.81;2003547;87;21114;-75
2021/11/24 13:17:22;;;;;;;24.77;14.13;;;;;;;6.28;80.53;100823.43;2008251;87;21015;-75
2021/11/24 13:20:30;;;;;;;21.65;13.03;;;;;;;6.25;80.44;100821.04;2007570;87;21037;-75
2021/11/24 13:23:28;;;;;;;19.57;12.45;;;;;;;6.23;80.55;100825.59;2005202;86;21058;-75
2021/11/24 13:26:30;;;;;;;24.07;12.63;;;;;;;6.26;80.49;100817.92;2009302;87;21693;-74
2021/11/24 13:29:34;;;;;;;22.80;13.55;;;;;;;6.26;80.41;100824.02;2006161;87;20990;-74
2021/11/24 13:32:35;;;;;;;24.32;14.28;;;;;;;6.26;80.52;100808.70;2008813;87;21130;-75
2021/11/24 13:35:54;;;;;;;21.73;12.90;;;;;;;6.29;80.62;100813.23;2005160;87;21058;-75
2021/11/24 13:38:57;;;;;;;19.45;11.75;;;;;;;6.32;80.47;100804.73;2007522;87;21021;-75
2021/11/24 13:42:13;;;;;;;18.07;11.53;;;;;;;6.32;80.47;100806.88;2005036;87;21085;-75
2021/11/24 13:45:16;;;;;;;26.02;12.88;;;;;;;6.31;80.51;100809.17;2007166;87;21081;-75
2021/11/24 13:48:20;;;;;;;26.15;15.58;;;;;;;6.34;80.54;100804.14;1971774;88;21095;-75
2021/11/24 13:51:22;;;;;;;41.68;19.25;;;;;;;6.38;80.70;100813.47;1976757;88;21509;-75
2021/11/24 13:54:24;;;;;;;62.15;27.00;;;;;;;6.40;80.57;100808.91;2005586;87;21150;-75
2021/11/24 13:57:30;;;;;;;54.55;25.72;;;;;;;6.40;80.50;100801.84;2012126;87;21038;-75
2021/11/24 14:00:31;;;;;;;38.45;18.70;;;;;;;6.45;80.54;100809.39;1984142;88;21091;-75
2021/11/24 14:03:33;;;;;;;22.70;13.32;;;;;;;6.55;80.66;100803.71;2005028;87;21622;-75